Impacts METAR Board
IDs:

KCFD - Bryan/Coulter Fld, TX, US

Updated at: 0300 UTC 15 Aug 2020
Potential Impact None Slight Moderate High
Time 14/15Z 14/16Z 14/17Z 14/18Z 14/19Z 14/20Z 14/21Z 14/22Z 14/23Z 15/00Z 15/01Z 15/02Z 15/03Z
Temp86 90 93 96 97 99 100 100 100 96 93 91 89
Dewpt73 71 69 68 67 64 69 68 66 68 69 69 72
Altim29.97 29.98 29.96 29.94 29.93 29.91 29.88 29.86 29.85 29.84 29.85 29.86 29.88
VIS10 10 5 10 10 10 10 10 10 10 10 10 10
CIG-- -- -- -- -- -- -- -- -- -- -- -- --
CoverCLRCLRCLRCLRCLRCLRCLRCLRCLRCLRCLRCLRCLR
FltCatVFRVFRMVFRVFRVFRVFRVFRVFRVFRVFRVFRVFRVFR
WX----HZ--------------------
WDir22024002100210150160160150150160160
WSpd10 7 0 8 0 7 13 9 9 11 10 7 8
WGst14 -- -- -- -- -- -- -- -- -- -- -- 15
Raw hourly METARs
KCFD 141455Z AUTO 22010G14KT 10SM CLR 30/23 A2997 RMK AO2 T03000225
KCFD 141555Z AUTO 24007KT 10SM CLR 32/22 A2998 RMK AO2 T03210216
KCFD 141655Z AUTO 00000KT 5SM HZ CLR 34/21 A2996 RMK AO2 T03370207
KCFD 141755Z AUTO 21008KT 170V250 10SM CLR 36/20 A2994 RMK AO2 T03560199 10359 20252
KCFD 141855Z AUTO 00000KT 10SM CLR 36/20 A2993 RMK AO2 T03600195
KCFD 141955Z AUTO 21007KT 10SM CLR 37/18 A2991 RMK AO2 T03700179
KCFD 142055Z AUTO 15013KT 10SM CLR 38/20 A2988 RMK AO2 T03760203
KCFD 142155Z AUTO 16009KT 10SM CLR 38/20 A2986 RMK AO2 T03790200
KCFD 142255Z AUTO 16009KT 10SM CLR 38/19 A2985 RMK AO2 T03750191
KCFD 142355Z AUTO 15011KT 10SM CLR 36/20 A2984 RMK AO2 T03580201 10383 20356
KCFD 150055Z AUTO 15010KT 10SM CLR 34/21 A2985 RMK AO2 T03390206
KCFD 150155Z AUTO 16007KT 10SM CLR 33/21 A2986 RMK AO2 T03260205
KCFD 150255Z AUTO 16008G15KT 10SM CLR 32/22 A2988 RMK AO2 T03170220